sensor_id;sensor_type;location;lat;lon;timestamp;P1;durP1;ratioP1;P2;durP2;ratioP2
26696;SDS011;14312;52.614;13.496;2023-05-17T00:02:27;2.67;;;1.10;;
26696;SDS011;14312;52.614;13.496;2023-05-17T00:05:13;1.27;;;0.90;;
26696;SDS011;14312;52.614;13.496;2023-05-17T00:07:59;1.85;;;0.93;;
26696;SDS011;14312;52.614;13.496;2023-05-17T00:10:45;0.82;;;0.82;;
26696;SDS011;14312;52.614;13.496;2023-05-17T00:13:31;2.90;;;1.20;;
26696;SDS011;14312;52.614;13.496;2023-05-17T00:16:17;1.67;;;1.23;;
26696;SDS011;14312;52.614;13.496;2023-05-17T00:19:03;1.63;;;1.15;;
26696;SDS011;14312;52.614;13.496;2023-05-17T00:21:49;1.85;;;1.00;;
26696;SDS011;14312;52.614;13.496;2023-05-17T00:24:35;2.03;;;1.40;;
26696;SDS011;14312;52.614;13.496;2023-05-17T00:27:21;1.75;;;1.23;;
26696;SDS011;14312;52.614;13.496;2023-05-17T00:30:07;2.28;;;1.27;;
26696;SDS011;14312;52.614;13.496;2023-05-17T00:32:53;1.65;;;1.40;;
26696;SDS011;14312;52.614;13.496;2023-05-17T00:35:39;3.20;;;1.30;;
26696;SDS011;14312;52.614;13.496;2023-05-17T00:38:25;1.48;;;1.30;;
26696;SDS011;14312;52.614;13.496;2023-05-17T00:41:11;2.40;;;1.40;;
26696;SDS011;14312;52.614;13.496;2023-05-17T00:43:58;2.10;;;1.40;;
26696;SDS011;14312;52.614;13.496;2023-05-17T00:46:44;3.40;;;1.50;;
26696;SDS011;14312;52.614;13.496;2023-05-17T00:49:31;1.80;;;1.00;;
26696;SDS011;14312;52.614;13.496;2023-05-17T00:52:18;3.97;;;1.50;;
26696;SDS011;14312;52.614;13.496;2023-05-17T00:55:05;1.92;;;1.35;;
26696;SDS011;14312;52.614;13.496;2023-05-17T00:57:51;3.45;;;1.63;;
26696;SDS011;14312;52.614;13.496;2023-05-17T01:00:37;3.97;;;1.70;;
26696;SDS011;14312;52.614;13.496;2023-05-17T01:03:23;3.22;;;1.50;;
26696;SDS011;14312;52.614;13.496;2023-05-17T01:06:10;2.92;;;1.38;;
26696;SDS011;14312;52.614;13.496;2023-05-17T01:08:56;1.48;;;1.10;;
26696;SDS011;14312;52.614;13.496;2023-05-17T01:20:51;5.28;;;1.73;;
26696;SDS011;14312;52.614;13.496;2023-05-17T01:24:02;3.05;;;1.98;;
26696;SDS011;14312;52.614;13.496;2023-05-17T01:27:01;3.38;;;1.88;;
26696;SDS011;14312;52.614;13.496;2023-05-17T01:29:50;2.17;;;1.48;;
26696;SDS011;14312;52.614;13.496;2023-05-17T01:32:40;2.80;;;1.83;;
26696;SDS011;14312;52.614;13.496;2023-05-17T01:35:27;4.68;;;2.10;;
26696;SDS011;14312;52.614;13.496;2023-05-17T01:38:13;3.47;;;1.90;;
26696;SDS011;14312;52.614;13.496;2023-05-17T01:41:02;2.53;;;1.85;;
26696;SDS011;14312;52.614;13.496;2023-05-17T01:44:01;5.55;;;2.15;;
26696;SDS011;14312;52.614;13.496;2023-05-17T01:46:54;3.90;;;2.03;;
26696;SDS011;14312;52.614;13.496;2023-05-17T01:49:47;4.25;;;2.08;;
26696;SDS011;14312;52.614;13.496;2023-05-17T01:52:47;4.30;;;2.05;;
26696;SDS011;14312;52.614;13.496;2023-05-17T01:58:45;3.72;;;1.98;;
26696;SDS011;14312;52.614;13.496;2023-05-17T02:01:33;2.58;;;1.90;;
26696;SDS011;14312;52.614;13.496;2023-05-17T02:04:20;4.32;;;2.00;;
26696;SDS011;14312;52.614;13.496;2023-05-17T02:07:06;4.88;;;2.00;;
26696;SDS011;14312;52.614;13.496;2023-05-17T02:09:52;5.18;;;2.10;;
26696;SDS011;14312;52.614;13.496;2023-05-17T02:12:39;4.13;;;2.00;;
26696;SDS011;14312;52.614;13.496;2023-05-17T02:15:24;3.10;;;2.10;;
26696;SDS011;14312;52.614;13.496;2023-05-17T02:18:10;4.97;;;2.17;;
26696;SDS011;14312;52.614;13.496;2023-05-17T02:20:57;5.45;;;2.20;;
26696;SDS011;14312;52.614;13.496;2023-05-17T02:23:43;4.28;;;2.08;;
26696;SDS011;14312;52.614;13.496;2023-05-17T02:26:29;5.05;;;1.95;;
26696;SDS011;14312;52.614;13.496;2023-05-17T02:29:16;3.40;;;2.33;;
26696;SDS011;14312;52.614;13.496;2023-05-17T02:32:02;7.40;;;3.05;;
26696;SDS011;14312;52.614;13.496;2023-05-17T02:34:48;4.07;;;2.33;;
26696;SDS011;14312;52.614;13.496;2023-05-17T02:37:34;5.07;;;2.50;;
26696;SDS011;14312;52.614;13.496;2023-05-17T02:40:21;4.80;;;2.20;;
26696;SDS011;14312;52.614;13.496;2023-05-17T02:43:07;4.18;;;2.72;;
26696;SDS011;14312;52.614;13.496;2023-05-17T02:45:53;4.57;;;2.08;;
26696;SDS011;14312;52.614;13.496;2023-05-17T02:48:39;4.75;;;2.35;;
26696;SDS011;14312;52.614;13.496;2023-05-17T02:51:25;4.70;;;2.38;;
26696;SDS011;14312;52.614;13.496;2023-05-17T02:54:11;4.47;;;2.22;;
26696;SDS011;14312;52.614;13.496;2023-05-17T02:56:57;5.45;;;2.40;;
26696;SDS011;14312;52.614;13.496;2023-05-17T02:59:43;5.93;;;2.53;;
26696;SDS011;14312;52.614;13.496;2023-05-17T03:02:29;2.97;;;2.10;;
26696;SDS011;14312;52.614;13.496;2023-05-17T03:05:15;3.08;;;2.00;;
26696;SDS011;14312;52.614;13.496;2023-05-17T03:08:01;5.70;;;2.30;;
26696;SDS011;14312;52.614;13.496;2023-05-17T03:10:47;4.72;;;2.45;;
26696;SDS011;14312;52.614;13.496;2023-05-17T03:13:33;4.00;;;2.00;;
26696;SDS011;14312;52.614;13.496;2023-05-17T03:16:19;3.83;;;2.10;;
26696;SDS011;14312;52.614;13.496;2023-05-17T03:19:06;3.92;;;2.20;;
26696;SDS011;14312;52.614;13.496;2023-05-17T03:21:52;3.88;;;2.38;;
26696;SDS011;14312;52.614;13.496;2023-05-17T03:24:37;4.75;;;2.17;;
26696;SDS011;14312;52.614;13.496;2023-05-17T03:27:23;4.05;;;2.38;;
26696;SDS011;14312;52.614;13.496;2023-05-17T03:30:09;5.28;;;2.63;;
26696;SDS011;14312;52.614;13.496;2023-05-17T03:32:56;3.45;;;2.05;;
26696;SDS011;14312;52.614;13.496;2023-05-17T03:35:42;3.10;;;2.25;;
26696;SDS011;14312;52.614;13.496;2023-05-17T03:38:28;4.13;;;2.15;;
26696;SDS011;14312;52.614;13.496;2023-05-17T03:41:14;2.63;;;2.10;;
26696;SDS011;14312;52.614;13.496;2023-05-17T03:44:00;6.38;;;2.30;;
26696;SDS011;14312;52.614;13.496;2023-05-17T03:46:46;3.58;;;2.10;;
26696;SDS011;14312;52.614;13.496;2023-05-17T03:49:32;3.55;;;2.13;;
26696;SDS011;14312;52.614;13.496;2023-05-17T03:52:18;4.50;;;2.67;;
26696;SDS011;14312;52.614;13.496;2023-05-17T03:55:04;4.45;;;2.47;;
26696;SDS011;14312;52.614;13.496;2023-05-17T03:57:50;5.35;;;2.60;;
26696;SDS011;14312;52.614;13.496;2023-05-17T04:00:36;6.95;;;2.45;;
26696;SDS011;14312;52.614;13.496;2023-05-17T04:03:22;4.32;;;2.15;;
26696;SDS011;14312;52.614;13.496;2023-05-17T04:06:08;3.70;;;2.22;;
26696;SDS011;14312;52.614;13.496;2023-05-17T04:08:54;4.85;;;2.30;;
26696;SDS011;14312;52.614;13.496;2023-05-17T04:11:40;3.45;;;2.35;;
26696;SDS011;14312;52.614;13.496;2023-05-17T04:14:27;4.55;;;2.63;;
26696;SDS011;14312;52.614;13.496;2023-05-17T04:17:13;6.63;;;2.38;;
26696;SDS011;14312;52.614;13.496;2023-05-17T04:19:59;3.63;;;2.35;;
26696;SDS011;14312;52.614;13.496;2023-05-17T04:22:45;6.28;;;3.03;;
26696;SDS011;14312;52.614;13.496;2023-05-17T04:25:31;5.05;;;2.30;;
26696;SDS011;14312;52.614;13.496;2023-05-17T04:28:17;4.35;;;2.75;;
26696;SDS011;14312;52.614;13.496;2023-05-17T04:31:07;3.80;;;2.10;;
26696;SDS011;14312;52.614;13.496;2023-05-17T04:33:54;5.47;;;2.20;;
26696;SDS011;14312;52.614;13.496;2023-05-17T04:36:39;5.97;;;3.28;;
26696;SDS011;14312;52.614;13.496;2023-05-17T04:39:25;4.28;;;2.25;;
26696;SDS011;14312;52.614;13.496;2023-05-17T04:42:11;3.65;;;2.28;;
26696;SDS011;14312;52.614;13.496;2023-05-17T04:44:57;5.50;;;2.95;;
26696;SDS011;14312;52.614;13.496;2023-05-17T04:47:43;3.53;;;2.45;;
26696;SDS011;14312;52.614;13.496;2023-05-17T04:50:30;3.50;;;2.25;;
26696;SDS011;14312;52.614;13.496;2023-05-17T04:53:15;3.83;;;2.20;;
26696;SDS011;14312;52.614;13.496;2023-05-17T04:56:02;4.00;;;2.35;;
26696;SDS011;14312;52.614;13.496;2023-05-17T04:58:48;4.38;;;2.30;;
26696;SDS011;14312;52.614;13.496;2023-05-17T05:01:34;4.50;;;2.78;;
26696;SDS011;14312;52.614;13.496;2023-05-17T05:04:20;3.38;;;2.40;;
26696;SDS011;14312;52.614;13.496;2023-05-17T05:07:06;3.35;;;2.40;;
26696;SDS011;14312;52.614;13.496;2023-05-17T05:09:52;5.03;;;2.20;;
26696;SDS011;14312;52.614;13.496;2023-05-17T05:12:38;6.45;;;2.67;;
26696;SDS011;14312;52.614;13.496;2023-05-17T05:15:24;5.70;;;2.38;;
26696;SDS011;14312;52.614;13.496;2023-05-17T05:18:10;4.40;;;2.63;;
26696;SDS011;14312;52.614;13.496;2023-05-17T05:20:56;5.97;;;2.42;;
26696;SDS011;14312;52.614;13.496;2023-05-17T05:23:42;5.28;;;2.15;;
26696;SDS011;14312;52.614;13.496;2023-05-17T05:26:28;4.10;;;2.50;;
26696;SDS011;14312;52.614;13.496;2023-05-17T05:29:14;4.68;;;2.00;;
26696;SDS011;14312;52.614;13.496;2023-05-17T05:32:00;3.88;;;2.08;;
26696;SDS011;14312;52.614;13.496;2023-05-17T05:34:46;4.40;;;2.10;;
26696;SDS011;14312;52.614;13.496;2023-05-17T05:37:32;7.20;;;2.40;;
26696;SDS011;14312;52.614;13.496;2023-05-17T05:40:18;3.35;;;2.03;;
26696;SDS011;14312;52.614;13.496;2023-05-17T05:43:04;5.60;;;2.47;;
26696;SDS011;14312;52.614;13.496;2023-05-17T05:45:50;3.22;;;1.95;;
26696;SDS011;14312;52.614;13.496;2023-05-17T05:48:36;4.15;;;1.90;;
26696;SDS011;14312;52.614;13.496;2023-05-17T05:51:26;6.80;;;2.38;;
26696;SDS011;14312;52.614;13.496;2023-05-17T05:54:12;3.97;;;1.95;;
26696;SDS011;14312;52.614;13.496;2023-05-17T05:56:58;4.47;;;2.20;;
26696;SDS011;14312;52.614;13.496;2023-05-17T05:59:45;6.32;;;2.10;;
26696;SDS011;14312;52.614;13.496;2023-05-17T06:02:31;3.85;;;2.40;;
26696;SDS011;14312;52.614;13.496;2023-05-17T06:05:17;4.78;;;2.03;;
26696;SDS011;14312;52.614;13.496;2023-05-17T06:08:03;4.80;;;2.30;;
26696;SDS011;14312;52.614;13.496;2023-05-17T06:10:49;4.40;;;2.30;;
26696;SDS011;14312;52.614;13.496;2023-05-17T06:13:36;5.45;;;2.15;;
26696;SDS011;14312;52.614;13.496;2023-05-17T06:16:21;5.85;;;2.60;;
26696;SDS011;14312;52.614;13.496;2023-05-17T06:19:09;4.47;;;1.95;;
26696;SDS011;14312;52.614;13.496;2023-05-17T06:21:55;5.88;;;2.20;;
26696;SDS011;14312;52.614;13.496;2023-05-17T06:24:40;6.15;;;2.30;;
26696;SDS011;14312;52.614;13.496;2023-05-17T06:27:26;4.88;;;2.13;;
26696;SDS011;14312;52.614;13.496;2023-05-17T06:30:12;2.90;;;1.70;;
26696;SDS011;14312;52.614;13.496;2023-05-17T06:32:59;2.60;;;1.30;;
26696;SDS011;14312;52.614;13.496;2023-05-17T06:35:45;5.78;;;2.10;;
26696;SDS011;14312;52.614;13.496;2023-05-17T06:38:31;4.95;;;2.10;;
26696;SDS011;14312;52.614;13.496;2023-05-17T06:41:16;4.32;;;2.20;;
26696;SDS011;14312;52.614;13.496;2023-05-17T06:44:03;4.30;;;1.88;;
26696;SDS011;14312;52.614;13.496;2023-05-17T06:46:49;5.78;;;1.60;;
26696;SDS011;14312;52.614;13.496;2023-05-17T06:49:35;4.13;;;1.63;;
26696;SDS011;14312;52.614;13.496;2023-05-17T06:52:22;5.53;;;2.13;;
26696;SDS011;14312;52.614;13.496;2023-05-17T06:55:07;4.43;;;1.90;;
26696;SDS011;14312;52.614;13.496;2023-05-17T06:57:53;6.55;;;2.10;;
26696;SDS011;14312;52.614;13.496;2023-05-17T07:00:40;5.22;;;2.28;;
26696;SDS011;14312;52.614;13.496;2023-05-17T07:03:26;3.13;;;1.70;;
26696;SDS011;14312;52.614;13.496;2023-05-17T07:06:11;4.60;;;1.60;;
26696;SDS011;14312;52.614;13.496;2023-05-17T07:08:57;3.67;;;1.70;;
26696;SDS011;14312;52.614;13.496;2023-05-17T07:11:43;5.40;;;1.80;;
26696;SDS011;14312;52.614;13.496;2023-05-17T07:14:29;4.30;;;1.52;;
26696;SDS011;14312;52.614;13.496;2023-05-17T07:17:15;3.67;;;1.40;;
26696;SDS011;14312;52.614;13.496;2023-05-17T07:20:01;4.95;;;1.70;;
26696;SDS011;14312;52.614;13.496;2023-05-17T07:22:48;3.92;;;1.50;;
26696;SDS011;14312;52.614;13.496;2023-05-17T07:25:34;3.63;;;1.77;;
26696;SDS011;14312;52.614;13.496;2023-05-17T07:28:23;2.60;;;1.80;;
26696;SDS011;14312;52.614;13.496;2023-05-17T07:31:09;6.00;;;1.55;;
26696;SDS011;14312;52.614;13.496;2023-05-17T07:33:55;2.50;;;1.70;;
26696;SDS011;14312;52.614;13.496;2023-05-17T07:36:41;4.60;;;1.70;;
26696;SDS011;14312;52.614;13.496;2023-05-17T07:39:26;3.75;;;1.70;;
26696;SDS011;14312;52.614;13.496;2023-05-17T07:42:12;4.20;;;1.40;;
26696;SDS011;14312;52.614;13.496;2023-05-17T07:44:58;3.20;;;1.50;;
26696;SDS011;14312;52.614;13.496;2023-05-17T07:47:44;5.90;;;2.03;;
26696;SDS011;14312;52.614;13.496;2023-05-17T07:50:30;5.47;;;2.22;;
26696;SDS011;14312;52.614;13.496;2023-05-17T07:53:17;3.05;;;1.38;;
26696;SDS011;14312;52.614;13.496;2023-05-17T07:56:03;3.17;;;1.70;;
26696;SDS011;14312;52.614;13.496;2023-05-17T07:58:49;3.03;;;1.50;;
26696;SDS011;14312;52.614;13.496;2023-05-17T08:01:35;2.47;;;1.35;;
26696;SDS011;14312;52.614;13.496;2023-05-17T08:04:21;2.65;;;1.40;;
26696;SDS011;14312;52.614;13.496;2023-05-17T08:07:08;3.10;;;1.73;;
26696;SDS011;14312;52.614;13.496;2023-05-17T08:09:54;4.85;;;1.75;;
26696;SDS011;14312;52.614;13.496;2023-05-17T08:12:40;3.95;;;1.63;;
26696;SDS011;14312;52.614;13.496;2023-05-17T08:15:26;2.60;;;1.27;;
26696;SDS011;14312;52.614;13.496;2023-05-17T08:18:13;2.72;;;1.25;;
26696;SDS011;14312;52.614;13.496;2023-05-17T08:20:59;2.70;;;1.40;;
26696;SDS011;14312;52.614;13.496;2023-05-17T08:23:45;3.45;;;1.50;;
26696;SDS011;14312;52.614;13.496;2023-05-17T08:26:31;3.70;;;1.77;;
26696;SDS011;14312;52.614;13.496;2023-05-17T08:29:17;3.47;;;1.70;;
26696;SDS011;14312;52.614;13.496;2023-05-17T08:32:03;6.43;;;1.83;;
26696;SDS011;14312;52.614;13.496;2023-05-17T08:34:50;4.03;;;1.50;;
26696;SDS011;14312;52.614;13.496;2023-05-17T08:37:36;3.83;;;1.48;;
26696;SDS011;14312;52.614;13.496;2023-05-17T08:40:22;2.83;;;1.60;;
26696;SDS011;14312;52.614;13.496;2023-05-17T08:43:09;2.38;;;1.42;;
26696;SDS011;14312;52.614;13.496;2023-05-17T08:45:56;4.35;;;1.50;;
26696;SDS011;14312;52.614;13.496;2023-05-17T08:48:43;2.28;;;1.27;;
26696;SDS011;14312;52.614;13.496;2023-05-17T08:51:31;2.38;;;1.10;;
26696;SDS011;14312;52.614;13.496;2023-05-17T08:54:17;6.18;;;1.50;;
26696;SDS011;14312;52.614;13.496;2023-05-17T08:57:03;3.35;;;1.40;;
26696;SDS011;14312;52.614;13.496;2023-05-17T08:59:51;4.38;;;1.52;;
26696;SDS011;14312;52.614;13.496;2023-05-17T09:02:38;4.18;;;1.55;;
26696;SDS011;14312;52.614;13.496;2023-05-17T09:05:25;3.95;;;1.40;;
26696;SDS011;14312;52.614;13.496;2023-05-17T09:08:12;3.88;;;1.70;;
26696;SDS011;14312;52.614;13.496;2023-05-17T09:10:58;3.28;;;1.40;;
26696;SDS011;14312;52.614;13.496;2023-05-17T09:13:44;4.50;;;1.80;;
26696;SDS011;14312;52.614;13.496;2023-05-17T09:16:30;2.38;;;1.48;;
26696;SDS011;14312;52.614;13.496;2023-05-17T09:19:18;4.00;;;1.70;;
26696;SDS011;14312;52.614;13.496;2023-05-17T09:22:06;4.85;;;1.63;;
26696;SDS011;14312;52.614;13.496;2023-05-17T09:24:52;4.63;;;1.80;;
26696;SDS011;14312;52.614;13.496;2023-05-17T09:27:38;2.15;;;1.42;;
26696;SDS011;14312;52.614;13.496;2023-05-17T09:30:31;2.22;;;1.67;;
26696;SDS011;14312;52.614;13.496;2023-05-17T09:33:18;4.28;;;1.40;;
26696;SDS011;14312;52.614;13.496;2023-05-17T09:36:10;4.30;;;1.75;;
26696;SDS011;14312;52.614;13.496;2023-05-17T09:39:08;3.97;;;1.83;;
26696;SDS011;14312;52.614;13.496;2023-05-17T09:41:57;4.75;;;2.05;;
26696;SDS011;14312;52.614;13.496;2023-05-17T09:44:46;6.28;;;1.77;;
26696;SDS011;14312;52.614;13.496;2023-05-17T09:47:34;4.43;;;1.50;;
26696;SDS011;14312;52.614;13.496;2023-05-17T09:50:20;3.58;;;1.92;;
26696;SDS011;14312;52.614;13.496;2023-05-17T09:53:12;3.17;;;1.45;;
26696;SDS011;14312;52.614;13.496;2023-05-17T09:56:08;3.92;;;1.70;;
26696;SDS011;14312;52.614;13.496;2023-05-17T09:58:54;3.53;;;1.90;;
26696;SDS011;14312;52.614;13.496;2023-05-17T10:01:41;2.30;;;1.63;;
26696;SDS011;14312;52.614;13.496;2023-05-17T10:04:29;5.53;;;1.77;;
26696;SDS011;14312;52.614;13.496;2023-05-17T10:07:17;2.88;;;1.42;;
26696;SDS011;14312;52.614;13.496;2023-05-17T10:10:04;4.10;;;1.70;;
26696;SDS011;14312;52.614;13.496;2023-05-17T10:12:51;3.80;;;1.67;;
26696;SDS011;14312;52.614;13.496;2023-05-17T10:15:38;4.03;;;1.58;;
26696;SDS011;14312;52.614;13.496;2023-05-17T10:18:25;3.45;;;1.60;;
26696;SDS011;14312;52.614;13.496;2023-05-17T10:21:12;3.67;;;1.85;;
26696;SDS011;14312;52.614;13.496;2023-05-17T10:24:00;5.40;;;2.08;;
26696;SDS011;14312;52.614;13.496;2023-05-17T10:26:49;6.55;;;1.80;;
26696;SDS011;14312;52.614;13.496;2023-05-17T10:29:37;4.88;;;1.70;;
26696;SDS011;14312;52.614;13.496;2023-05-17T10:32:23;3.47;;;1.42;;
26696;SDS011;14312;52.614;13.496;2023-05-17T10:35:13;2.30;;;1.30;;
26696;SDS011;14312;52.614;13.496;2023-05-17T10:37:59;3.55;;;1.45;;
26696;SDS011;14312;52.614;13.496;2023-05-17T10:40:46;3.05;;;1.75;;
26696;SDS011;14312;52.614;13.496;2023-05-17T10:43:33;3.70;;;1.52;;
26696;SDS011;14312;52.614;13.496;2023-05-17T10:46:21;2.78;;;1.52;;
26696;SDS011;14312;52.614;13.496;2023-05-17T10:49:08;4.57;;;1.50;;
26696;SDS011;14312;52.614;13.496;2023-05-17T10:51:58;3.53;;;1.50;;
26696;SDS011;14312;52.614;13.496;2023-05-17T10:54:55;2.58;;;1.38;;
26696;SDS011;14312;52.614;13.496;2023-05-17T10:57:49;5.63;;;1.80;;
26696;SDS011;14312;52.614;13.496;2023-05-17T11:00:57;4.05;;;1.63;;
26696;SDS011;14312;52.614;13.496;2023-05-17T11:03:44;3.35;;;1.73;;
26696;SDS011;14312;52.614;13.496;2023-05-17T11:06:36;3.25;;;1.50;;
26696;SDS011;14312;52.614;13.496;2023-05-17T11:09:24;3.67;;;1.75;;
26696;SDS011;14312;52.614;13.496;2023-05-17T11:12:26;2.40;;;1.30;;
26696;SDS011;14312;52.614;13.496;2023-05-17T11:15:22;5.70;;;1.65;;
26696;SDS011;14312;52.614;13.496;2023-05-17T11:18:10;3.42;;;1.80;;
26696;SDS011;14312;52.614;13.496;2023-05-17T11:21:06;4.10;;;1.40;;
26696;SDS011;14312;52.614;13.496;2023-05-17T11:23:53;2.42;;;1.40;;
26696;SDS011;14312;52.614;13.496;2023-05-17T11:26:41;2.33;;;1.42;;
26696;SDS011;14312;52.614;13.496;2023-05-17T11:29:30;3.10;;;1.23;;
26696;SDS011;14312;52.614;13.496;2023-05-17T11:32:16;4.45;;;1.55;;
26696;SDS011;14312;52.614;13.496;2023-05-17T11:35:01;2.00;;;1.67;;
26696;SDS011;14312;52.614;13.496;2023-05-17T11:37:50;4.90;;;1.88;;
26696;SDS011;14312;52.614;13.496;2023-05-17T11:40:58;3.50;;;1.67;;
26696;SDS011;14312;52.614;13.496;2023-05-17T11:44:01;5.15;;;1.85;;
26696;SDS011;14312;52.614;13.496;2023-05-17T11:46:48;3.80;;;1.50;;
26696;SDS011;14312;52.614;13.496;2023-05-17T11:49:38;3.05;;;1.70;;
26696;SDS011;14312;52.614;13.496;2023-05-17T11:52:24;3.97;;;1.50;;
26696;SDS011;14312;52.614;13.496;2023-05-17T11:55:13;4.07;;;1.50;;
26696;SDS011;14312;52.614;13.496;2023-05-17T11:58:00;4.43;;;1.90;;
26696;SDS011;14312;52.614;13.496;2023-05-17T12:00:55;2.45;;;1.45;;
26696;SDS011;14312;52.614;13.496;2023-05-17T12:03:43;2.92;;;1.50;;
26696;SDS011;14312;52.614;13.496;2023-05-17T12:06:29;3.17;;;1.60;;
26696;SDS011;14312;52.614;13.496;2023-05-17T12:09:15;3.00;;;1.30;;
26696;SDS011;14312;52.614;13.496;2023-05-17T12:12:02;4.97;;;1.67;;
26696;SDS011;14312;52.614;13.496;2023-05-17T12:14:49;4.20;;;1.80;;
26696;SDS011;14312;52.614;13.496;2023-05-17T12:17:36;3.45;;;1.90;;
26696;SDS011;14312;52.614;13.496;2023-05-17T12:20:28;3.67;;;1.83;;
26696;SDS011;14312;52.614;13.496;2023-05-17T12:23:24;5.95;;;1.90;;
26696;SDS011;14312;52.614;13.496;2023-05-17T12:26:11;4.13;;;1.73;;
26696;SDS011;14312;52.614;13.496;2023-05-17T12:28:59;4.70;;;1.70;;
26696;SDS011;14312;52.614;13.496;2023-05-17T12:31:47;3.13;;;1.88;;
26696;SDS011;14312;52.614;13.496;2023-05-17T12:34:34;2.67;;;1.67;;
26696;SDS011;14312;52.614;13.496;2023-05-17T12:37:21;3.58;;;1.60;;
26696;SDS011;14312;52.614;13.496;2023-05-17T12:40:07;5.40;;;1.50;;
26696;SDS011;14312;52.614;13.496;2023-05-17T12:43:00;2.90;;;1.50;;
26696;SDS011;14312;52.614;13.496;2023-05-17T12:45:49;3.55;;;1.67;;
26696;SDS011;14312;52.614;13.496;2023-05-17T12:48:37;3.90;;;1.67;;
26696;SDS011;14312;52.614;13.496;2023-05-17T12:51:24;2.10;;;1.40;;
26696;SDS011;14312;52.614;13.496;2023-05-17T12:54:10;3.90;;;1.52;;
26696;SDS011;14312;52.614;13.496;2023-05-17T12:56:57;4.25;;;1.77;;
26696;SDS011;14312;52.614;13.496;2023-05-17T12:59:47;3.60;;;1.40;;
26696;SDS011;14312;52.614;13.496;2023-05-17T13:02:34;5.55;;;1.73;;
26696;SDS011;14312;52.614;13.496;2023-05-17T13:05:20;3.88;;;1.75;;
26696;SDS011;14312;52.614;13.496;2023-05-17T13:08:19;2.20;;;1.40;;
26696;SDS011;14312;52.614;13.496;2023-05-17T13:11:10;4.30;;;1.83;;
26696;SDS011;14312;52.614;13.496;2023-05-17T13:13:59;3.08;;;1.83;;
26696;SDS011;14312;52.614;13.496;2023-05-17T13:16:45;3.20;;;1.77;;
26696;SDS011;14312;52.614;13.496;2023-05-17T13:19:31;4.68;;;1.58;;
26696;SDS011;14312;52.614;13.496;2023-05-17T13:22:17;2.78;;;1.27;;
26696;SDS011;14312;52.614;13.496;2023-05-17T13:25:04;2.47;;;1.77;;
26696;SDS011;14312;52.614;13.496;2023-05-17T13:27:50;4.35;;;1.70;;
26696;SDS011;14312;52.614;13.496;2023-05-17T13:30:37;2.53;;;1.33;;
26696;SDS011;14312;52.614;13.496;2023-05-17T13:33:23;3.47;;;1.60;;
26696;SDS011;14312;52.614;13.496;2023-05-17T13:36:09;4.55;;;1.60;;
26696;SDS011;14312;52.614;13.496;2023-05-17T13:38:56;1.98;;;1.30;;
26696;SDS011;14312;52.614;13.496;2023-05-17T13:41:42;3.60;;;1.80;;
26696;SDS011;14312;52.614;13.496;2023-05-17T13:44:29;2.45;;;1.52;;
26696;SDS011;14312;52.614;13.496;2023-05-17T13:47:15;2.38;;;1.30;;
26696;SDS011;14312;52.614;13.496;2023-05-17T13:50:01;3.20;;;1.70;;
26696;SDS011;14312;52.614;13.496;2023-05-17T13:52:48;2.22;;;1.40;;
26696;SDS011;14312;52.614;13.496;2023-05-17T13:55:34;4.88;;;1.45;;
26696;SDS011;14312;52.614;13.496;2023-05-17T13:58:20;3.08;;;1.48;;
26696;SDS011;14312;52.614;13.496;2023-05-17T14:01:06;1.70;;;1.27;;
26696;SDS011;14312;52.614;13.496;2023-05-17T14:03:52;3.58;;;1.70;;
26696;SDS011;14312;52.614;13.496;2023-05-17T14:06:40;2.85;;;1.27;;
26696;SDS011;14312;52.614;13.496;2023-05-17T14:09:26;3.42;;;1.40;;
26696;SDS011;14312;52.614;13.496;2023-05-17T14:12:15;2.75;;;1.38;;
26696;SDS011;14312;52.614;13.496;2023-05-17T14:15:01;2.85;;;1.40;;
26696;SDS011;14312;52.614;13.496;2023-05-17T14:17:48;2.85;;;1.23;;
26696;SDS011;14312;52.614;13.496;2023-05-17T14:20:34;1.98;;;1.20;;
26696;SDS011;14312;52.614;13.496;2023-05-17T14:23:19;2.38;;;1.23;;
26696;SDS011;14312;52.614;13.496;2023-05-17T14:26:06;3.15;;;1.50;;
26696;SDS011;14312;52.614;13.496;2023-05-17T14:28:53;2.33;;;1.60;;
26696;SDS011;14312;52.614;13.496;2023-05-17T14:31:39;5.47;;;1.85;;
26696;SDS011;14312;52.614;13.496;2023-05-17T14:34:26;2.88;;;1.52;;
26696;SDS011;14312;52.614;13.496;2023-05-17T14:37:11;2.90;;;1.50;;
26696;SDS011;14312;52.614;13.496;2023-05-17T14:39:59;3.17;;;1.60;;
26696;SDS011;14312;52.614;13.496;2023-05-17T14:42:45;2.42;;;1.10;;
26696;SDS011;14312;52.614;13.496;2023-05-17T14:45:32;4.07;;;1.75;;
26696;SDS011;14312;52.614;13.496;2023-05-17T14:48:17;2.17;;;1.40;;
26696;SDS011;14312;52.614;13.496;2023-05-17T14:51:03;3.33;;;1.30;;
26696;SDS011;14312;52.614;13.496;2023-05-17T14:53:50;1.55;;;1.25;;
26696;SDS011;14312;52.614;13.496;2023-05-17T14:56:36;3.85;;;1.48;;
26696;SDS011;14312;52.614;13.496;2023-05-17T14:59:22;3.25;;;1.60;;
26696;SDS011;14312;52.614;13.496;2023-05-17T15:02:09;2.40;;;1.45;;
26696;SDS011;14312;52.614;13.496;2023-05-17T15:04:55;2.75;;;1.60;;
26696;SDS011;14312;52.614;13.496;2023-05-17T15:07:41;3.90;;;1.60;;
26696;SDS011;14312;52.614;13.496;2023-05-17T15:10:27;5.30;;;1.73;;
26696;SDS011;14312;52.614;13.496;2023-05-17T15:13:14;1.85;;;1.20;;
26696;SDS011;14312;52.614;13.496;2023-05-17T15:16:01;2.17;;;1.27;;
26696;SDS011;14312;52.614;13.496;2023-05-17T15:18:47;3.00;;;1.50;;
26696;SDS011;14312;52.614;13.496;2023-05-17T15:21:33;1.77;;;1.40;;
26696;SDS011;14312;52.614;13.496;2023-05-17T15:24:19;2.03;;;1.58;;
26696;SDS011;14312;52.614;13.496;2023-05-17T15:27:05;3.72;;;1.50;;
26696;SDS011;14312;52.614;13.496;2023-05-17T15:29:52;3.22;;;1.40;;
26696;SDS011;14312;52.614;13.496;2023-05-17T15:32:38;2.50;;;1.23;;
26696;SDS011;14312;52.614;13.496;2023-05-17T15:35:24;3.92;;;1.48;;
26696;SDS011;14312;52.614;13.496;2023-05-17T15:38:11;4.07;;;1.65;;
26696;SDS011;14312;52.614;13.496;2023-05-17T15:41:00;3.15;;;1.60;;
26696;SDS011;14312;52.614;13.496;2023-05-17T15:43:48;3.55;;;1.83;;
26696;SDS011;14312;52.614;13.496;2023-05-17T15:46:34;4.38;;;1.48;;
26696;SDS011;14312;52.614;13.496;2023-05-17T15:49:20;2.55;;;1.50;;
26696;SDS011;14312;52.614;13.496;2023-05-17T15:52:06;2.83;;;1.90;;
26696;SDS011;14312;52.614;13.496;2023-05-17T15:54:52;3.83;;;1.50;;
26696;SDS011;14312;52.614;13.496;2023-05-17T15:57:38;2.55;;;1.33;;
26696;SDS011;14312;52.614;13.496;2023-05-17T16:00:25;1.95;;;1.33;;
26696;SDS011;14312;52.614;13.496;2023-05-17T16:03:12;2.38;;;1.52;;
26696;SDS011;14312;52.614;13.496;2023-05-17T16:05:59;4.13;;;1.63;;
26696;SDS011;14312;52.614;13.496;2023-05-17T16:08:45;4.20;;;2.15;;
26696;SDS011;14312;52.614;13.496;2023-05-17T16:11:31;3.92;;;1.83;;
26696;SDS011;14312;52.614;13.496;2023-05-17T16:14:17;4.35;;;2.15;;
26696;SDS011;14312;52.614;13.496;2023-05-17T16:17:03;3.00;;;1.90;;
26696;SDS011;14312;52.614;13.496;2023-05-17T16:19:49;2.70;;;1.38;;
26696;SDS011;14312;52.614;13.496;2023-05-17T16:22:35;2.70;;;1.40;;
26696;SDS011;14312;52.614;13.496;2023-05-17T16:25:22;2.25;;;1.30;;
26696;SDS011;14312;52.614;13.496;2023-05-17T16:28:08;4.28;;;1.63;;
26696;SDS011;14312;52.614;13.496;2023-05-17T16:30:54;2.67;;;1.63;;
26696;SDS011;14312;52.614;13.496;2023-05-17T16:33:41;3.20;;;1.65;;
26696;SDS011;14312;52.614;13.496;2023-05-17T16:36:27;2.33;;;1.48;;
26696;SDS011;14312;52.614;13.496;2023-05-17T16:39:13;4.13;;;1.67;;
26696;SDS011;14312;52.614;13.496;2023-05-17T16:42:00;2.95;;;1.70;;
26696;SDS011;14312;52.614;13.496;2023-05-17T16:44:46;2.80;;;1.70;;